CheckWX is a tool to help pilots better visualize weather data.  It is not intended as a substitute for an official pre-flight weather briefing.

00:21:17 UTC

CYBN TAF
CFB Borden Heliport
Borden, Canada
TAF CYBN 252330Z 2600/2612 33010G20KT P6SM FEW090 BECMG 2601/2603 33005KT RMK FCST BASED ON AUTO OBS. NXT FCST BY 260600Z

Mar-26@
00:00 UTC

Mar-26 @ 00:00 UTC

Mar-26@
01:00 UTC

Mar-26 @ 01:00 UTC

TAF CYBN 252330Z 2600/2612 33010G20KT P6SM FEW090
Wind
  • 330° at 10 KTS
  • {Gusting to 20 KTS
Cloud Levels
  • Few at 9,000' AGL

Mar-26@
01:00 UTC

Mar-26 @ 01:00 UTC

Mar-26@
12:00 UTC

Mar-26 @ 12:00 UTC

BECMG 2601/2603 33005KT RMK FCST BASED ON AUTO OBS. NXT FCST BY 260600Z

Becoming

Becoming Conditions expected by Tue, Mar 26, 2019 @ 03:00 UTC

Wind
  • 330° at 5 KTS
Cloud Levels
  • Few at 9,000' AGL